| Time | Avg. Air Temp | Dew Point | Avg. Rel Humidity | Avg. 2 Min Wind Speed | Max Gust Velocity | MGV Time | MGV Direction | Avg. Spot Wind Velocity |
|---|---|---|---|---|---|---|---|---|
| 2026-05-09 23:40:00 | 5° C | -1° C | 67% | 25 km/h | 30 km/h | 23:36:00 | S | 25 km/h |
| 22:40:00 | 5° C | -1° C | 67% | 27 km/h | 32 km/h | 22:40:00 | S | 26 km/h |
| 21:40:00 | 5° C | -1° C | 65% | 24 km/h | 30 km/h | 21:37:00 | S | 23 km/h |
| 20:40:00 | 5° C | -2° C | 62% | 19 km/h | 22 km/h | 20:37:00 | S | 20 km/h |
| 19:40:00 | 5° C | -2° C | 59% | 16 km/h | 22 km/h | 19:36:00 | S | 19 km/h |
| 18:40:00 | 6° C | -1° C | 61% | 11 km/h | 15 km/h | 18:36:00 | S | 10 km/h |
| 17:40:00 | 6° C | -1° C | 60% | 14 km/h | 20 km/h | 17:40:00 | S | 13 km/h |
| 16:40:00 | 6° C | -1° C | 62% | 11 km/h | 21 km/h | 16:37:00 | S | 12 km/h |
| 15:40:00 | 5° C | -1° C | 62% | 16 km/h | 21 km/h | 15:37:00 | SW | 15 km/h |
| 14:40:00 | 5° C | -3° C | 60% | 9 km/h | 18 km/h | 14:38:00 | S | 9 km/h |
| 13:40:00 | 4° C | -1° C | 69% | 11 km/h | 19 km/h | 13:38:00 | SW | 11 km/h |
| 12:40:00 | 3° C | 1° C | 84% | 11 km/h | 16 km/h | 12:37:00 | SE | 13 km/h |
| 11:40:00 | 2° C | 2° C | 99% | 8 km/h | 11 km/h | 11:39:00 | SE | 6 km/h |
| 10:40:00 | 2° C | 1° C | 97% | 0 km/h | 2 km/h | 10:36:00 | NE | 0 km/h |
| 09:40:00 | 2° C | 1° C | 92% | 0 km/h | 3 km/h | 09:38:00 | S | 2 km/h |
| 08:40:00 | 1° C | -0° C | 90% | 4 km/h | 6 km/h | 08:36:00 | S | 4 km/h |
| 07:40:00 | 1° C | -1° C | 92% | 0 km/h | 4 km/h | 07:37:00 | W | 1 km/h |
| 06:40:00 | -0° C | -0° C | 100% | 8 km/h | 11 km/h | 06:40:00 | NW | 9 km/h |
| 05:40:00 | -1° C | -2° C | 100% | 15 km/h | 22 km/h | 05:36:00 | NW | 15 km/h |
| 04:40:00 | -1° C | -1° C | 100% | 9 km/h | 18 km/h | 04:37:00 | NW | 12 km/h |
| 03:40:00 | -1° C | -1° C | 100% | 16 km/h | 18 km/h | 03:39:00 | NW | 16 km/h |
| 02:40:00 | -1° C | -1° C | 100% | 15 km/h | 16 km/h | 02:37:00 | NW | 13 km/h |
| 01:40:00 | -0° C | -0° C | 100% | 19 km/h | 21 km/h | 01:40:00 | NW | 19 km/h |
| 00:40:00 | 0° C | 0° C | 100% | 12 km/h | 15 km/h | 00:40:00 | W | 11 km/h |
Subpeak Weather
| Time | Avg. Air Temp | Dew Point | Avg. Rel Humidity | Avg. 2 Min Wind Speed | Max Gust Velocity | MGV Time | MGV Direction | Avg. Spot Wind Velocity |
|---|---|---|---|---|---|---|---|---|
| 2026-05-09 23:40:00 | 5° C | -1° C | 67% | 25 km/h | 30 km/h | 23:36:00 | S | 25 km/h |
| 23:35:00 | 5° C | -1° C | 67% | 28 km/h | 33 km/h | 23:33:00 | S | 29 km/h |
| 23:30:00 | 5° C | -1° C | 66% | 24 km/h | 32 km/h | 23:26:00 | S | 23 km/h |
| 23:25:00 | 5° C | -0° C | 68% | 31 km/h | 34 km/h | 23:25:00 | S | 30 km/h |
| 23:20:00 | 5° C | -1° C | 68% | 25 km/h | 36 km/h | 23:16:00 | S | 28 km/h |
| 23:15:00 | 5° C | -0° C | 68% | 26 km/h | 31 km/h | 23:14:00 | SE | 28 km/h |
| 23:10:00 | 5° C | -0° C | 67% | 30 km/h | 32 km/h | 23:10:00 | S | 26 km/h |
| 23:05:00 | 5° C | -1° C | 67% | 26 km/h | 34 km/h | 23:02:00 | S | 28 km/h |
| 23:00:00 | 5° C | -1° C | 68% | 28 km/h | 34 km/h | 23:00:00 | S | 27 km/h |
| 22:55:00 | 5° C | -1° C | 66% | 30 km/h | 37 km/h | 22:54:00 | S | 27 km/h |
| 22:50:00 | 5° C | -1° C | 67% | 28 km/h | 33 km/h | 22:48:00 | S | 26 km/h |
| 22:45:00 | 5° C | -1° C | 66% | 30 km/h | 33 km/h | 22:43:00 | SE | 29 km/h |
| 22:40:00 | 5° C | -1° C | 67% | 27 km/h | 32 km/h | 22:40:00 | S | 26 km/h |




